sensor_id;sensor_type;location;lat;lon;timestamp;P1;durP1;ratioP1;P2;durP2;ratioP2
60239;SDS011;46102;39.012;-7.064;2023-04-01T00:00:53;11.73;;;2.88;;
60239;SDS011;46102;39.012;-7.064;2023-04-01T00:02:56;15.15;;;3.05;;
60239;SDS011;46102;39.012;-7.064;2023-04-01T00:04:56;22.15;;;4.22;;
60239;SDS011;46102;39.012;-7.064;2023-04-01T00:06:57;24.13;;;4.28;;
60239;SDS011;46102;39.012;-7.064;2023-04-01T00:08:58;22.33;;;3.92;;
60239;SDS011;46102;39.012;-7.064;2023-04-01T00:10:59;19.17;;;3.78;;
60239;SDS011;46102;39.012;-7.064;2023-04-01T00:13:00;13.88;;;3.90;;
60239;SDS011;46102;39.012;-7.064;2023-04-01T00:15:01;25.10;;;4.68;;
60239;SDS011;46102;39.012;-7.064;2023-04-01T00:17:03;23.90;;;4.32;;
60239;SDS011;46102;39.012;-7.064;2023-04-01T00:19:04;14.10;;;3.03;;
60239;SDS011;46102;39.012;-7.064;2023-04-01T00:21:05;11.35;;;2.88;;
60239;SDS011;46102;39.012;-7.064;2023-04-01T00:23:05;16.00;;;3.72;;
60239;SDS011;46102;39.012;-7.064;2023-04-01T00:25:06;10.85;;;3.90;;
60239;SDS011;46102;39.012;-7.064;2023-04-01T00:27:07;18.77;;;4.28;;
60239;SDS011;46102;39.012;-7.064;2023-04-01T00:29:08;16.23;;;3.70;;
60239;SDS011;46102;39.012;-7.064;2023-04-01T00:31:09;11.65;;;3.95;;
60239;SDS011;46102;39.012;-7.064;2023-04-01T00:33:15;17.20;;;4.43;;
60239;SDS011;46102;39.012;-7.064;2023-04-01T00:35:16;19.67;;;4.30;;
60239;SDS011;46102;39.012;-7.064;2023-04-01T00:37:17;25.10;;;4.20;;
60239;SDS011;46102;39.012;-7.064;2023-04-01T00:39:20;18.52;;;3.92;;
60239;SDS011;46102;39.012;-7.064;2023-04-01T00:41:21;17.58;;;4.07;;
60239;SDS011;46102;39.012;-7.064;2023-04-01T00:43:22;18.15;;;4.93;;
60239;SDS011;46102;39.012;-7.064;2023-04-01T00:45:31;15.23;;;4.63;;
60239;SDS011;46102;39.012;-7.064;2023-04-01T00:47:37;24.17;;;4.40;;
60239;SDS011;46102;39.012;-7.064;2023-04-01T00:49:39;11.00;;;3.42;;
60239;SDS011;46102;39.012;-7.064;2023-04-01T00:51:43;16.92;;;4.38;;
60239;SDS011;46102;39.012;-7.064;2023-04-01T00:53:48;19.20;;;4.63;;
60239;SDS011;46102;39.012;-7.064;2023-04-01T00:55:54;23.83;;;4.60;;
60239;SDS011;46102;39.012;-7.064;2023-04-01T00:58:14;24.65;;;4.68;;
60239;SDS011;46102;39.012;-7.064;2023-04-01T01:00:20;21.55;;;4.55;;
60239;SDS011;46102;39.012;-7.064;2023-04-01T01:02:21;20.33;;;4.80;;
60239;SDS011;46102;39.012;-7.064;2023-04-01T01:04:25;24.15;;;5.18;;
60239;SDS011;46102;39.012;-7.064;2023-04-01T01:06:39;27.85;;;4.95;;
60239;SDS011;46102;39.012;-7.064;2023-04-01T01:11:05;18.48;;;4.63;;
60239;SDS011;46102;39.012;-7.064;2023-04-01T01:13:16;19.17;;;4.20;;
60239;SDS011;46102;39.012;-7.064;2023-04-01T01:15:33;15.45;;;4.15;;
60239;SDS011;46102;39.012;-7.064;2023-04-01T01:24:38;29.10;;;5.65;;
60239;SDS011;46102;39.012;-7.064;2023-04-01T01:26:59;23.75;;;4.82;;
60239;SDS011;46102;39.012;-7.064;2023-04-01T01:29:06;32.90;;;5.20;;
60239;SDS011;46102;39.012;-7.064;2023-04-01T01:33:54;30.05;;;5.55;;
60239;SDS011;46102;39.012;-7.064;2023-04-01T01:36:18;25.02;;;5.32;;
60239;SDS011;46102;39.012;-7.064;2023-04-01T01:38:22;18.13;;;4.15;;
60239;SDS011;46102;39.012;-7.064;2023-04-01T01:40:33;16.73;;;4.15;;
60239;SDS011;46102;39.012;-7.064;2023-04-01T01:42:38;26.40;;;5.25;;
60239;SDS011;46102;39.012;-7.064;2023-04-01T01:44:44;15.55;;;4.32;;
60239;SDS011;46102;39.012;-7.064;2023-04-01T01:46:47;34.35;;;5.57;;
60239;SDS011;46102;39.012;-7.064;2023-04-01T01:48:50;21.65;;;4.57;;
60239;SDS011;46102;39.012;-7.064;2023-04-01T01:50:52;28.02;;;5.03;;
60239;SDS011;46102;39.012;-7.064;2023-04-01T01:53:01;21.27;;;4.78;;
60239;SDS011;46102;39.012;-7.064;2023-04-01T01:55:22;16.17;;;4.30;;
60239;SDS011;46102;39.012;-7.064;2023-04-01T01:57:36;22.65;;;5.25;;
60239;SDS011;46102;39.012;-7.064;2023-04-01T01:59:47;27.48;;;6.07;;
60239;SDS011;46102;39.012;-7.064;2023-04-01T02:01:56;28.60;;;5.85;;
60239;SDS011;46102;39.012;-7.064;2023-04-01T02:03:59;19.60;;;4.95;;
60239;SDS011;46102;39.012;-7.064;2023-04-01T02:06:02;24.30;;;5.40;;
60239;SDS011;46102;39.012;-7.064;2023-04-01T02:10:13;23.58;;;4.65;;
60239;SDS011;46102;39.012;-7.064;2023-04-01T02:12:15;24.85;;;5.22;;
60239;SDS011;46102;39.012;-7.064;2023-04-01T02:14:21;20.15;;;4.13;;
60239;SDS011;46102;39.012;-7.064;2023-04-01T02:18:29;15.95;;;4.95;;
60239;SDS011;46102;39.012;-7.064;2023-04-01T02:20:35;14.98;;;3.75;;
60239;SDS011;46102;39.012;-7.064;2023-04-01T02:22:39;25.63;;;4.30;;
60239;SDS011;46102;39.012;-7.064;2023-04-01T02:24:45;23.63;;;4.65;;
60239;SDS011;46102;39.012;-7.064;2023-04-01T02:26:48;21.52;;;4.07;;
60239;SDS011;46102;39.012;-7.064;2023-04-01T02:28:52;14.40;;;5.05;;
60239;SDS011;46102;39.012;-7.064;2023-04-01T02:30:55;25.55;;;5.28;;
60239;SDS011;46102;39.012;-7.064;2023-04-01T02:32:58;26.38;;;4.97;;
60239;SDS011;46102;39.012;-7.064;2023-04-01T02:34:59;31.98;;;5.05;;
60239;SDS011;46102;39.012;-7.064;2023-04-01T02:37:03;29.90;;;4.85;;
60239;SDS011;46102;39.012;-7.064;2023-04-01T02:39:04;21.70;;;4.22;;
60239;SDS011;46102;39.012;-7.064;2023-04-01T02:41:06;23.42;;;5.63;;
60239;SDS011;46102;39.012;-7.064;2023-04-01T02:43:07;21.88;;;4.78;;
60239;SDS011;46102;39.012;-7.064;2023-04-01T02:45:08;17.98;;;5.10;;
60239;SDS011;46102;39.012;-7.064;2023-04-01T02:47:10;19.27;;;4.95;;
60239;SDS011;46102;39.012;-7.064;2023-04-01T02:49:11;29.65;;;5.43;;
60239;SDS011;46102;39.012;-7.064;2023-04-01T02:51:13;21.75;;;5.32;;
60239;SDS011;46102;39.012;-7.064;2023-04-01T02:53:14;25.90;;;5.43;;
60239;SDS011;46102;39.012;-7.064;2023-04-01T02:55:16;21.40;;;4.50;;
60239;SDS011;46102;39.012;-7.064;2023-04-01T02:57:17;20.35;;;4.57;;
60239;SDS011;46102;39.012;-7.064;2023-04-01T02:59:18;28.83;;;5.38;;
60239;SDS011;46102;39.012;-7.064;2023-04-01T03:01:20;26.05;;;4.40;;
60239;SDS011;46102;39.012;-7.064;2023-04-01T03:03:21;21.77;;;5.30;;
60239;SDS011;46102;39.012;-7.064;2023-04-01T03:05:23;28.02;;;4.75;;
60239;SDS011;46102;39.012;-7.064;2023-04-01T03:07:24;25.20;;;5.35;;
60239;SDS011;46102;39.012;-7.064;2023-04-01T03:09:25;19.05;;;4.18;;
60239;SDS011;46102;39.012;-7.064;2023-04-01T03:11:27;22.60;;;5.10;;
60239;SDS011;46102;39.012;-7.064;2023-04-01T03:13:28;20.05;;;3.95;;
60239;SDS011;46102;39.012;-7.064;2023-04-01T03:15:29;23.35;;;4.38;;
60239;SDS011;46102;39.012;-7.064;2023-04-01T03:17:29;20.55;;;3.75;;
60239;SDS011;46102;39.012;-7.064;2023-04-01T03:19:30;22.42;;;4.57;;
60239;SDS011;46102;39.012;-7.064;2023-04-01T03:21:32;26.80;;;5.57;;
60239;SDS011;46102;39.012;-7.064;2023-04-01T03:23:34;18.63;;;4.10;;
60239;SDS011;46102;39.012;-7.064;2023-04-01T03:25:35;18.88;;;3.80;;
60239;SDS011;46102;39.012;-7.064;2023-04-01T03:27:36;14.13;;;3.70;;
60239;SDS011;46102;39.012;-7.064;2023-04-01T03:29:37;15.32;;;3.92;;
60239;SDS011;46102;39.012;-7.064;2023-04-01T03:31:39;19.55;;;4.30;;
60239;SDS011;46102;39.012;-7.064;2023-04-01T03:33:39;24.50;;;4.55;;
60239;SDS011;46102;39.012;-7.064;2023-04-01T03:35:40;25.20;;;4.55;;
60239;SDS011;46102;39.012;-7.064;2023-04-01T03:37:41;22.35;;;3.88;;
60239;SDS011;46102;39.012;-7.064;2023-04-01T03:39:42;25.60;;;4.10;;
60239;SDS011;46102;39.012;-7.064;2023-04-01T03:41:42;18.17;;;3.60;;
60239;SDS011;46102;39.012;-7.064;2023-04-01T03:43:43;16.52;;;3.35;;
60239;SDS011;46102;39.012;-7.064;2023-04-01T03:45:48;17.92;;;3.58;;
60239;SDS011;46102;39.012;-7.064;2023-04-01T03:47:51;23.98;;;3.90;;
60239;SDS011;46102;39.012;-7.064;2023-04-01T03:49:52;21.63;;;3.90;;
60239;SDS011;46102;39.012;-7.064;2023-04-01T03:51:53;22.10;;;3.83;;
60239;SDS011;46102;39.012;-7.064;2023-04-01T03:53:54;18.92;;;4.70;;
60239;SDS011;46102;39.012;-7.064;2023-04-01T03:55:55;26.13;;;3.90;;
60239;SDS011;46102;39.012;-7.064;2023-04-01T03:57:56;26.65;;;5.10;;
60239;SDS011;46102;39.012;-7.064;2023-04-01T03:59:57;10.00;;;2.95;;
60239;SDS011;46102;39.012;-7.064;2023-04-01T04:01:58;14.43;;;3.95;;
60239;SDS011;46102;39.012;-7.064;2023-04-01T04:03:59;22.63;;;3.63;;
60239;SDS011;46102;39.012;-7.064;2023-04-01T04:06:00;29.15;;;4.40;;
60239;SDS011;46102;39.012;-7.064;2023-04-01T04:08:02;18.30;;;3.45;;
60239;SDS011;46102;39.012;-7.064;2023-04-01T04:10:03;20.60;;;4.22;;
60239;SDS011;46102;39.012;-7.064;2023-04-01T04:12:05;28.65;;;4.47;;
60239;SDS011;46102;39.012;-7.064;2023-04-01T04:14:06;22.83;;;3.25;;
60239;SDS011;46102;39.012;-7.064;2023-04-01T04:16:07;19.42;;;3.67;;
60239;SDS011;46102;39.012;-7.064;2023-04-01T04:18:12;26.30;;;3.55;;
60239;SDS011;46102;39.012;-7.064;2023-04-01T04:20:13;11.57;;;3.50;;
60239;SDS011;46102;39.012;-7.064;2023-04-01T04:22:15;15.93;;;3.28;;
60239;SDS011;46102;39.012;-7.064;2023-04-01T04:24:16;23.77;;;3.22;;
60239;SDS011;46102;39.012;-7.064;2023-04-01T04:26:35;23.63;;;3.65;;
60239;SDS011;46102;39.012;-7.064;2023-04-01T04:28:36;20.17;;;3.50;;
60239;SDS011;46102;39.012;-7.064;2023-04-01T04:30:37;20.13;;;4.35;;
60239;SDS011;46102;39.012;-7.064;2023-04-01T04:32:38;18.70;;;3.72;;
60239;SDS011;46102;39.012;-7.064;2023-04-01T04:34:39;21.52;;;3.70;;
60239;SDS011;46102;39.012;-7.064;2023-04-01T04:36:40;24.23;;;4.20;;
60239;SDS011;46102;39.012;-7.064;2023-04-01T04:38:41;19.52;;;3.80;;
60239;SDS011;46102;39.012;-7.064;2023-04-01T04:40:41;22.20;;;3.72;;
60239;SDS011;46102;39.012;-7.064;2023-04-01T04:42:43;18.60;;;3.55;;
60239;SDS011;46102;39.012;-7.064;2023-04-01T04:44:49;28.58;;;3.92;;
60239;SDS011;46102;39.012;-7.064;2023-04-01T04:46:50;16.02;;;3.47;;
60239;SDS011;46102;39.012;-7.064;2023-04-01T04:48:51;23.92;;;3.85;;
60239;SDS011;46102;39.012;-7.064;2023-04-01T04:50:52;27.00;;;4.55;;
60239;SDS011;46102;39.012;-7.064;2023-04-01T04:52:56;18.92;;;3.85;;
60239;SDS011;46102;39.012;-7.064;2023-04-01T04:54:57;18.05;;;4.07;;
60239;SDS011;46102;39.012;-7.064;2023-04-01T04:56:58;26.55;;;5.32;;
60239;SDS011;46102;39.012;-7.064;2023-04-01T04:59:01;20.05;;;3.30;;
60239;SDS011;46102;39.012;-7.064;2023-04-01T05:01:14;23.08;;;4.72;;
60239;SDS011;46102;39.012;-7.064;2023-04-01T05:03:17;28.30;;;4.53;;
60239;SDS011;46102;39.012;-7.064;2023-04-01T05:05:18;26.88;;;4.55;;
60239;SDS011;46102;39.012;-7.064;2023-04-01T05:07:20;25.92;;;3.25;;
60239;SDS011;46102;39.012;-7.064;2023-04-01T05:09:21;20.73;;;3.75;;
60239;SDS011;46102;39.012;-7.064;2023-04-01T05:11:22;25.27;;;3.63;;
60239;SDS011;46102;39.012;-7.064;2023-04-01T05:13:25;24.88;;;3.53;;
60239;SDS011;46102;39.012;-7.064;2023-04-01T05:15:26;13.10;;;3.30;;
60239;SDS011;46102;39.012;-7.064;2023-04-01T05:17:27;32.08;;;4.90;;
60239;SDS011;46102;39.012;-7.064;2023-04-01T05:19:28;15.80;;;4.15;;
60239;SDS011;46102;39.012;-7.064;2023-04-01T05:21:28;19.40;;;3.80;;
60239;SDS011;46102;39.012;-7.064;2023-04-01T05:23:31;19.05;;;2.97;;
60239;SDS011;46102;39.012;-7.064;2023-04-01T05:25:32;27.52;;;4.05;;
60239;SDS011;46102;39.012;-7.064;2023-04-01T05:27:33;23.63;;;3.58;;
60239;SDS011;46102;39.012;-7.064;2023-04-01T05:29:35;24.40;;;4.82;;
60239;SDS011;46102;39.012;-7.064;2023-04-01T05:31:39;21.42;;;3.65;;
60239;SDS011;46102;39.012;-7.064;2023-04-01T05:33:40;17.13;;;3.60;;
60239;SDS011;46102;39.012;-7.064;2023-04-01T05:35:41;23.75;;;4.15;;
60239;SDS011;46102;39.012;-7.064;2023-04-01T05:37:42;23.77;;;3.45;;
60239;SDS011;46102;39.012;-7.064;2023-04-01T05:39:43;23.13;;;3.92;;
60239;SDS011;46102;39.012;-7.064;2023-04-01T05:41:44;23.73;;;3.75;;
60239;SDS011;46102;39.012;-7.064;2023-04-01T05:43:45;25.10;;;3.85;;
60239;SDS011;46102;39.012;-7.064;2023-04-01T05:46:15;30.50;;;5.03;;
60239;SDS011;46102;39.012;-7.064;2023-04-01T05:48:23;20.65;;;4.22;;
60239;SDS011;46102;39.012;-7.064;2023-04-01T05:50:25;31.92;;;5.32;;
60239;SDS011;46102;39.012;-7.064;2023-04-01T05:52:26;19.42;;;3.72;;
60239;SDS011;46102;39.012;-7.064;2023-04-01T05:54:27;25.55;;;4.82;;
60239;SDS011;46102;39.012;-7.064;2023-04-01T05:56:28;19.02;;;4.63;;
60239;SDS011;46102;39.012;-7.064;2023-04-01T05:58:29;22.85;;;4.68;;
60239;SDS011;46102;39.012;-7.064;2023-04-01T06:00:33;21.23;;;3.72;;
60239;SDS011;46102;39.012;-7.064;2023-04-01T06:02:34;19.40;;;3.88;;
60239;SDS011;46102;39.012;-7.064;2023-04-01T06:04:37;30.15;;;4.20;;
60239;SDS011;46102;39.012;-7.064;2023-04-01T06:06:39;19.30;;;4.18;;
60239;SDS011;46102;39.012;-7.064;2023-04-01T06:08:43;27.38;;;5.22;;
60239;SDS011;46102;39.012;-7.064;2023-04-01T06:17:52;21.85;;;3.85;;
60239;SDS011;46102;39.012;-7.064;2023-04-01T06:20:19;23.80;;;4.15;;
60239;SDS011;46102;39.012;-7.064;2023-04-01T06:22:31;19.27;;;4.57;;
60239;SDS011;46102;39.012;-7.064;2023-04-01T06:24:49;18.63;;;3.05;;
60239;SDS011;46102;39.012;-7.064;2023-04-01T06:37:52;24.25;;;4.35;;
60239;SDS011;46102;39.012;-7.064;2023-04-01T06:44:28;22.50;;;3.42;;
60239;SDS011;46102;39.012;-7.064;2023-04-01T06:52:13;20.02;;;3.88;;
60239;SDS011;46102;39.012;-7.064;2023-04-01T06:54:36;22.38;;;5.15;;
60239;SDS011;46102;39.012;-7.064;2023-04-01T06:57:21;21.92;;;4.65;;
60239;SDS011;46102;39.012;-7.064;2023-04-01T06:59:30;19.90;;;3.67;;
60239;SDS011;46102;39.012;-7.064;2023-04-01T07:01:44;19.48;;;4.50;;
60239;SDS011;46102;39.012;-7.064;2023-04-01T07:06:04;19.23;;;4.45;;
60239;SDS011;46102;39.012;-7.064;2023-04-01T07:08:13;19.73;;;4.72;;
60239;SDS011;46102;39.012;-7.064;2023-04-01T07:10:23;16.65;;;4.65;;
60239;SDS011;46102;39.012;-7.064;2023-04-01T07:12:53;15.23;;;4.45;;
60239;SDS011;46102;39.012;-7.064;2023-04-01T07:15:19;18.33;;;5.32;;
60239;SDS011;46102;39.012;-7.064;2023-04-01T07:17:28;13.85;;;3.05;;
60239;SDS011;46102;39.012;-7.064;2023-04-01T07:21:49;6.53;;;3.40;;
60239;SDS011;46102;39.012;-7.064;2023-04-01T07:24:04;15.15;;;4.82;;
60239;SDS011;46102;39.012;-7.064;2023-04-01T07:26:17;19.02;;;4.60;;
60239;SDS011;46102;39.012;-7.064;2023-04-01T07:28:52;17.33;;;4.03;;
60239;SDS011;46102;39.012;-7.064;2023-04-01T07:33:15;18.48;;;4.05;;
60239;SDS011;46102;39.012;-7.064;2023-04-01T07:35:30;22.42;;;4.55;;
60239;SDS011;46102;39.012;-7.064;2023-04-01T07:49:09;19.17;;;4.28;;
60239;SDS011;46102;39.012;-7.064;2023-04-01T07:51:32;18.08;;;4.15;;
60239;SDS011;46102;39.012;-7.064;2023-04-01T07:53:46;17.08;;;4.22;;
60239;SDS011;46102;39.012;-7.064;2023-04-01T07:56:18;18.00;;;3.78;;
60239;SDS011;46102;39.012;-7.064;2023-04-01T07:58:35;13.73;;;3.35;;
60239;SDS011;46102;39.012;-7.064;2023-04-01T08:00:59;23.60;;;3.92;;
60239;SDS011;46102;39.012;-7.064;2023-04-01T08:03:29;18.87;;;3.37;;
60239;SDS011;46102;39.012;-7.064;2023-04-01T08:05:55;20.90;;;3.63;;
60239;SDS011;46102;39.012;-7.064;2023-04-01T08:08:06;18.80;;;4.35;;
60239;SDS011;46102;39.012;-7.064;2023-04-01T08:20:47;20.02;;;3.88;;
60239;SDS011;46102;39.012;-7.064;2023-04-01T08:22:53;11.00;;;3.60;;
60239;SDS011;46102;39.012;-7.064;2023-04-01T08:25:09;21.23;;;4.22;;
60239;SDS011;46102;39.012;-7.064;2023-04-01T08:27:24;13.65;;;3.42;;
60239;SDS011;46102;39.012;-7.064;2023-04-01T08:29:49;21.88;;;3.75;;
60239;SDS011;46102;39.012;-7.064;2023-04-01T08:31:58;13.40;;;2.88;;
60239;SDS011;46102;39.012;-7.064;2023-04-01T08:34:08;15.02;;;3.03;;
60239;SDS011;46102;39.012;-7.064;2023-04-01T08:36:19;16.85;;;2.83;;
60239;SDS011;46102;39.012;-7.064;2023-04-01T08:54:44;17.40;;;3.22;;
60239;SDS011;46102;39.012;-7.064;2023-04-01T09:00:23;8.60;;;2.63;;
60239;SDS011;46102;39.012;-7.064;2023-04-01T09:05:06;15.13;;;3.13;;
60239;SDS011;46102;39.012;-7.064;2023-04-01T09:17:01;11.50;;;2.53;;
60239;SDS011;46102;39.012;-7.064;2023-04-01T09:19:35;7.78;;;1.95;;
60239;SDS011;46102;39.012;-7.064;2023-04-01T09:31:28;12.00;;;2.67;;
60239;SDS011;46102;39.012;-7.064;2023-04-01T09:41:22;10.20;;;3.45;;
60239;SDS011;46102;39.012;-7.064;2023-04-01T09:48:24;15.80;;;8.02;;
60239;SDS011;46102;39.012;-7.064;2023-04-01T09:50:46;18.30;;;7.43;;
60239;SDS011;46102;39.012;-7.064;2023-04-01T09:52:59;18.63;;;5.28;;
60239;SDS011;46102;39.012;-7.064;2023-04-01T10:00:52;12.68;;;4.32;;
60239;SDS011;46102;39.012;-7.064;2023-04-01T10:30:34;8.38;;;2.10;;
60239;SDS011;46102;39.012;-7.064;2023-04-01T10:40:13;7.38;;;2.33;;
60239;SDS011;46102;39.012;-7.064;2023-04-01T10:56:22;8.50;;;2.13;;
60239;SDS011;46102;39.012;-7.064;2023-04-01T11:11:45;6.50;;;2.80;;
60239;SDS011;46102;39.012;-7.064;2023-04-01T11:22:17;9.40;;;2.22;;
60239;SDS011;46102;39.012;-7.064;2023-04-01T11:33:42;11.77;;;5.97;;
60239;SDS011;46102;39.012;-7.064;2023-04-01T11:35:54;11.52;;;3.35;;
60239;SDS011;46102;39.012;-7.064;2023-04-01T11:51:20;10.63;;;3.78;;
60239;SDS011;46102;39.012;-7.064;2023-04-01T11:56:19;15.65;;;3.03;;
60239;SDS011;46102;39.012;-7.064;2023-04-01T12:07:50;5.78;;;2.33;;
60239;SDS011;46102;39.012;-7.064;2023-04-01T12:14:20;12.05;;;1.92;;
60239;SDS011;46102;39.012;-7.064;2023-04-01T12:19:00;5.38;;;1.67;;
60239;SDS011;46102;39.012;-7.064;2023-04-01T12:21:26;7.53;;;1.40;;
60239;SDS011;46102;39.012;-7.064;2023-04-01T12:28:36;4.55;;;1.85;;
60239;SDS011;46102;39.012;-7.064;2023-04-01T12:33:18;7.63;;;1.98;;
60239;SDS011;46102;39.012;-7.064;2023-04-01T12:50:06;4.88;;;2.65;;
60239;SDS011;46102;39.012;-7.064;2023-04-01T13:02:15;7.47;;;2.35;;
60239;SDS011;46102;39.012;-7.064;2023-04-01T13:04:39;4.07;;;1.52;;
60239;SDS011;46102;39.012;-7.064;2023-04-01T13:19:17;8.20;;;2.45;;
60239;SDS011;46102;39.012;-7.064;2023-04-01T13:21:41;4.95;;;1.77;;
60239;SDS011;46102;39.012;-7.064;2023-04-01T13:28:19;7.32;;;2.15;;
60239;SDS011;46102;39.012;-7.064;2023-04-01T13:30:28;3.63;;;1.88;;
60239;SDS011;46102;39.012;-7.064;2023-04-01T13:32:42;4.45;;;1.40;;
60239;SDS011;46102;39.012;-7.064;2023-04-01T13:44:20;5.55;;;1.77;;
60239;SDS011;46102;39.012;-7.064;2023-04-01T13:57:36;7.05;;;1.98;;
60239;SDS011;46102;39.012;-7.064;2023-04-01T14:04:42;6.65;;;1.92;;
60239;SDS011;46102;39.012;-7.064;2023-04-01T14:11:22;5.97;;;1.70;;
60239;SDS011;46102;39.012;-7.064;2023-04-01T14:13:50;5.10;;;1.55;;
60239;SDS011;46102;39.012;-7.064;2023-04-01T14:15:56;5.35;;;1.77;;
60239;SDS011;46102;39.012;-7.064;2023-04-01T14:20:39;2.42;;;1.55;;
60239;SDS011;46102;39.012;-7.064;2023-04-01T14:27:56;5.75;;;2.58;;
60239;SDS011;46102;39.012;-7.064;2023-04-01T14:30:20;4.05;;;1.75;;
60239;SDS011;46102;39.012;-7.064;2023-04-01T14:44:29;9.60;;;1.60;;
60239;SDS011;46102;39.012;-7.064;2023-04-01T14:49:23;4.80;;;2.05;;
60239;SDS011;46102;39.012;-7.064;2023-04-01T14:51:34;5.45;;;1.58;;
60239;SDS011;46102;39.012;-7.064;2023-04-01T14:53:51;5.30;;;1.40;;
60239;SDS011;46102;39.012;-7.064;2023-04-01T14:55:59;5.05;;;1.50;;
60239;SDS011;46102;39.012;-7.064;2023-04-01T14:58:16;2.97;;;1.35;;
60239;SDS011;46102;39.012;-7.064;2023-04-01T15:00:18;1.58;;;1.00;;
60239;SDS011;46102;39.012;-7.064;2023-04-01T15:04:58;3.63;;;1.45;;
60239;SDS011;46102;39.012;-7.064;2023-04-01T15:22:51;4.03;;;1.10;;
60239;SDS011;46102;39.012;-7.064;2023-04-01T15:32:08;2.30;;;1.05;;
60239;SDS011;46102;39.012;-7.064;2023-04-01T15:52:23;4.93;;;1.35;;
60239;SDS011;46102;39.012;-7.064;2023-04-01T15:59:47;3.40;;;1.35;;
60239;SDS011;46102;39.012;-7.064;2023-04-01T16:04:51;3.05;;;1.50;;
60239;SDS011;46102;39.012;-7.064;2023-04-01T16:07:23;2.38;;;1.10;;
60239;SDS011;46102;39.012;-7.064;2023-04-01T16:16:38;1.80;;;1.40;;
60239;SDS011;46102;39.012;-7.064;2023-04-01T16:18:59;3.75;;;1.85;;
60239;SDS011;46102;39.012;-7.064;2023-04-01T16:21:34;3.20;;;1.30;;
60239;SDS011;46102;39.012;-7.064;2023-04-01T16:23:53;2.67;;;1.50;;
60239;SDS011;46102;39.012;-7.064;2023-04-01T16:28:24;3.80;;;1.60;;
60239;SDS011;46102;39.012;-7.064;2023-04-01T16:30:37;4.10;;;1.95;;
60239;SDS011;46102;39.012;-7.064;2023-04-01T16:32:45;3.95;;;1.35;;
60239;SDS011;46102;39.012;-7.064;2023-04-01T16:37:27;1.58;;;1.17;;
60239;SDS011;46102;39.012;-7.064;2023-04-01T16:39:37;1.90;;;0.80;;
60239;SDS011;46102;39.012;-7.064;2023-04-01T16:44:24;12.20;;;1.40;;
60239;SDS011;46102;39.012;-7.064;2023-04-01T16:46:33;1.52;;;0.63;;
60239;SDS011;46102;39.012;-7.064;2023-04-01T16:51:11;2.90;;;0.70;;
60239;SDS011;46102;39.012;-7.064;2023-04-01T16:55:35;2.10;;;0.75;;
60239;SDS011;46102;39.012;-7.064;2023-04-01T16:57:57;2.50;;;0.80;;
60239;SDS011;46102;39.012;-7.064;2023-04-01T17:02:28;2.38;;;0.95;;
60239;SDS011;46102;39.012;-7.064;2023-04-01T17:06:45;5.57;;;1.33;;
60239;SDS011;46102;39.012;-7.064;2023-04-01T17:13:39;5.53;;;1.73;;
60239;SDS011;46102;39.012;-7.064;2023-04-01T17:22:48;2.00;;;1.80;;
60239;SDS011;46102;39.012;-7.064;2023-04-01T17:24:59;6.22;;;2.47;;
60239;SDS011;46102;39.012;-7.064;2023-04-01T17:27:20;5.93;;;2.28;;
60239;SDS011;46102;39.012;-7.064;2023-04-01T17:32:12;3.40;;;2.20;;
60239;SDS011;46102;39.012;-7.064;2023-04-01T17:34:29;4.13;;;2.38;;
60239;SDS011;46102;39.012;-7.064;2023-04-01T17:38:57;5.47;;;3.42;;
60239;SDS011;46102;39.012;-7.064;2023-04-01T17:41:16;4.90;;;3.50;;
60239;SDS011;46102;39.012;-7.064;2023-04-01T17:43:42;3.30;;;3.00;;
60239;SDS011;46102;39.012;-7.064;2023-04-01T17:53:03;9.35;;;6.88;;
60239;SDS011;46102;39.012;-7.064;2023-04-01T17:59:50;6.35;;;5.68;;
60239;SDS011;46102;39.012;-7.064;2023-04-01T18:04:17;9.77;;;8.77;;
60239;SDS011;46102;39.012;-7.064;2023-04-01T18:22:57;4.53;;;1.65;;
60239;SDS011;46102;39.012;-7.064;2023-04-01T18:25:21;3.72;;;2.00;;
60239;SDS011;46102;39.012;-7.064;2023-04-01T18:27:33;3.20;;;1.92;;
60239;SDS011;46102;39.012;-7.064;2023-04-01T18:31:42;4.57;;;1.52;;
60239;SDS011;46102;39.012;-7.064;2023-04-01T18:40:21;2.67;;;1.23;;
60239;SDS011;46102;39.012;-7.064;2023-04-01T18:42:34;1.55;;;0.90;;
60239;SDS011;46102;39.012;-7.064;2023-04-01T18:45:01;3.88;;;0.90;;
60239;SDS011;46102;39.012;-7.064;2023-04-01T18:53:58;2.15;;;0.95;;
60239;SDS011;46102;39.012;-7.064;2023-04-01T18:56:06;1.60;;;1.15;;
60239;SDS011;46102;39.012;-7.064;2023-04-01T19:00:25;1.52;;;1.20;;
60239;SDS011;46102;39.012;-7.064;2023-04-01T19:07:19;2.20;;;1.55;;
60239;SDS011;46102;39.012;-7.064;2023-04-01T19:09:44;2.15;;;1.30;;
60239;SDS011;46102;39.012;-7.064;2023-04-01T19:11:56;1.65;;;0.98;;
60239;SDS011;46102;39.012;-7.064;2023-04-01T19:14:15;2.10;;;2.00;;
60239;SDS011;46102;39.012;-7.064;2023-04-01T19:18:43;1.17;;;1.10;;
60239;SDS011;46102;39.012;-7.064;2023-04-01T19:27:48;9.10;;;6.63;;
60239;SDS011;46102;39.012;-7.064;2023-04-01T19:36:30;4.95;;;1.08;;
60239;SDS011;46102;39.012;-7.064;2023-04-01T19:38:43;2.08;;;0.82;;
60239;SDS011;46102;39.012;-7.064;2023-04-01T19:48:25;4.93;;;4.53;;
60239;SDS011;46102;39.012;-7.064;2023-04-01T19:52:56;2.22;;;1.38;;
60239;SDS011;46102;39.012;-7.064;2023-04-01T19:55:22;0.90;;;0.90;;
60239;SDS011;46102;39.012;-7.064;2023-04-01T20:04:55;3.80;;;1.92;;
60239;SDS011;46102;39.012;-7.064;2023-04-01T20:16:08;4.55;;;1.10;;
60239;SDS011;46102;39.012;-7.064;2023-04-01T20:18:15;1.92;;;1.73;;
60239;SDS011;46102;39.012;-7.064;2023-04-01T20:20:26;1.80;;;1.30;;
60239;SDS011;46102;39.012;-7.064;2023-04-01T20:24:46;2.80;;;2.60;;
60239;SDS011;46102;39.012;-7.064;2023-04-01T20:26:58;2.55;;;1.20;;
60239;SDS011;46102;39.012;-7.064;2023-04-01T20:31:24;6.93;;;1.52;;
60239;SDS011;46102;39.012;-7.064;2023-04-01T20:38:13;3.17;;;1.15;;
60239;SDS011;46102;39.012;-7.064;2023-04-01T20:51:54;1.42;;;1.02;;
60239;SDS011;46102;39.012;-7.064;2023-04-01T21:14:34;2.05;;;1.63;;
60239;SDS011;46102;39.012;-7.064;2023-04-01T21:16:43;4.85;;;1.55;;
60239;SDS011;46102;39.012;-7.064;2023-04-01T21:19:00;3.15;;;1.45;;
60239;SDS011;46102;39.012;-7.064;2023-04-01T21:21:08;4.10;;;2.13;;
60239;SDS011;46102;39.012;-7.064;2023-04-01T21:27:41;1.40;;;1.30;;
60239;SDS011;46102;39.012;-7.064;2023-04-01T21:30:07;1.08;;;0.95;;
60239;SDS011;46102;39.012;-7.064;2023-04-01T21:39:41;1.00;;;0.90;;
60239;SDS011;46102;39.012;-7.064;2023-04-01T21:44:02;1.85;;;0.80;;
60239;SDS011;46102;39.012;-7.064;2023-04-01T22:07:20;1.77;;;0.90;;
60239;SDS011;46102;39.012;-7.064;2023-04-01T22:09:29;0.73;;;0.73;;
60239;SDS011;46102;39.012;-7.064;2023-04-01T22:13:47;0.93;;;0.80;;
60239;SDS011;46102;39.012;-7.064;2023-04-01T22:18:31;1.95;;;0.93;;
60239;SDS011;46102;39.012;-7.064;2023-04-01T22:20:39;2.38;;;0.75;;
60239;SDS011;46102;39.012;-7.064;2023-04-01T22:22:50;0.50;;;0.50;;
60239;SDS011;46102;39.012;-7.064;2023-04-01T22:27:10;2.85;;;0.63;;
60239;SDS011;46102;39.012;-7.064;2023-04-01T22:29:31;1.85;;;0.57;;
60239;SDS011;46102;39.012;-7.064;2023-04-01T22:31:52;1.75;;;1.05;;
60239;SDS011;46102;39.012;-7.064;2023-04-01T22:34:16;0.90;;;0.85;;
60239;SDS011;46102;39.012;-7.064;2023-04-01T22:36:41;2.72;;;1.58;;
60239;SDS011;46102;39.012;-7.064;2023-04-01T22:41:15;0.52;;;0.52;;
60239;SDS011;46102;39.012;-7.064;2023-04-01T22:43:29;1.08;;;0.70;;
60239;SDS011;46102;39.012;-7.064;2023-04-01T22:45:46;1.02;;;0.68;;
60239;SDS011;46102;39.012;-7.064;2023-04-01T22:52:26;1.13;;;0.95;;
60239;SDS011;46102;39.012;-7.064;2023-04-01T22:54:41;0.77;;;0.55;;
60239;SDS011;46102;39.012;-7.064;2023-04-01T22:56:51;0.88;;;0.75;;
60239;SDS011;46102;39.012;-7.064;2023-04-01T22:58:57;2.08;;;0.70;;